sensor_id;sensor_type;location;lat;lon;timestamp;P1;durP1;ratioP1;P2;durP2;ratioP2
78783;SDS011;68127;51.050;14.084;2023-05-14T00:00:46;10.25;;;6.55;;
78783;SDS011;68127;51.050;14.084;2023-05-14T00:03:11;11.75;;;6.97;;
78783;SDS011;68127;51.050;14.084;2023-05-14T00:05:37;10.80;;;6.93;;
78783;SDS011;68127;51.050;14.084;2023-05-14T00:08:02;9.57;;;6.65;;
78783;SDS011;68127;51.050;14.084;2023-05-14T00:10:27;9.60;;;7.25;;
78783;SDS011;68127;51.050;14.084;2023-05-14T00:12:52;10.15;;;6.97;;
78783;SDS011;68127;51.050;14.084;2023-05-14T00:15:18;8.20;;;6.40;;
78783;SDS011;68127;51.050;14.084;2023-05-14T00:17:43;9.20;;;6.38;;
78783;SDS011;68127;51.050;14.084;2023-05-14T00:20:09;10.30;;;6.70;;
78783;SDS011;68127;51.050;14.084;2023-05-14T00:22:36;9.07;;;6.68;;
78783;SDS011;68127;51.050;14.084;2023-05-14T00:25:01;10.32;;;7.63;;
78783;SDS011;68127;51.050;14.084;2023-05-14T00:27:27;10.82;;;6.63;;
78783;SDS011;68127;51.050;14.084;2023-05-14T00:29:52;11.15;;;6.53;;
78783;SDS011;68127;51.050;14.084;2023-05-14T00:32:17;9.75;;;6.32;;
78783;SDS011;68127;51.050;14.084;2023-05-14T00:34:42;10.25;;;6.85;;
78783;SDS011;68127;51.050;14.084;2023-05-14T00:37:08;9.30;;;6.47;;
78783;SDS011;68127;51.050;14.084;2023-05-14T00:39:33;8.25;;;5.95;;
78783;SDS011;68127;51.050;14.084;2023-05-14T00:41:58;9.05;;;6.05;;
78783;SDS011;68127;51.050;14.084;2023-05-14T00:44:24;9.32;;;5.15;;
78783;SDS011;68127;51.050;14.084;2023-05-14T00:46:49;8.02;;;5.13;;
78783;SDS011;68127;51.050;14.084;2023-05-14T00:49:14;8.02;;;5.55;;
78783;SDS011;68127;51.050;14.084;2023-05-14T00:51:40;7.57;;;5.43;;
78783;SDS011;68127;51.050;14.084;2023-05-14T00:54:06;9.02;;;5.53;;
78783;SDS011;68127;51.050;14.084;2023-05-14T00:56:31;9.70;;;5.05;;
78783;SDS011;68127;51.050;14.084;2023-05-14T00:58:57;7.72;;;5.10;;
78783;SDS011;68127;51.050;14.084;2023-05-14T01:01:22;6.68;;;4.88;;
78783;SDS011;68127;51.050;14.084;2023-05-14T01:03:47;10.25;;;5.30;;
78783;SDS011;68127;51.050;14.084;2023-05-14T01:09:07;10.63;;;5.78;;
78783;SDS011;68127;51.050;14.084;2023-05-14T01:11:50;9.45;;;5.15;;
78783;SDS011;68127;51.050;14.084;2023-05-14T01:14:21;7.75;;;5.40;;
78783;SDS011;68127;51.050;14.084;2023-05-14T01:16:49;6.72;;;4.80;;
78783;SDS011;68127;51.050;14.084;2023-05-14T01:19:21;7.85;;;5.28;;
78783;SDS011;68127;51.050;14.084;2023-05-14T01:21:51;8.45;;;5.38;;
78783;SDS011;68127;51.050;14.084;2023-05-14T01:24:16;8.07;;;5.30;;
78783;SDS011;68127;51.050;14.084;2023-05-14T01:26:41;7.93;;;5.07;;
78783;SDS011;68127;51.050;14.084;2023-05-14T01:29:12;8.57;;;4.85;;
78783;SDS011;68127;51.050;14.084;2023-05-14T01:31:42;7.25;;;4.80;;
78783;SDS011;68127;51.050;14.084;2023-05-14T01:34:08;7.15;;;4.95;;
78783;SDS011;68127;51.050;14.084;2023-05-14T01:36:35;7.82;;;4.65;;
78783;SDS011;68127;51.050;14.084;2023-05-14T01:39:01;7.25;;;4.78;;
78783;SDS011;68127;51.050;14.084;2023-05-14T01:41:27;7.20;;;4.80;;
78783;SDS011;68127;51.050;14.084;2023-05-14T01:43:53;7.03;;;4.70;;
78783;SDS011;68127;51.050;14.084;2023-05-14T01:46:19;8.80;;;4.75;;
78783;SDS011;68127;51.050;14.084;2023-05-14T01:48:44;8.88;;;5.60;;
78783;SDS011;68127;51.050;14.084;2023-05-14T01:51:09;7.25;;;5.25;;
78783;SDS011;68127;51.050;14.084;2023-05-14T01:53:34;7.45;;;5.10;;
78783;SDS011;68127;51.050;14.084;2023-05-14T01:56:00;8.70;;;5.22;;
78783;SDS011;68127;51.050;14.084;2023-05-14T01:58:25;8.43;;;5.18;;
78783;SDS011;68127;51.050;14.084;2023-05-14T02:00:50;7.15;;;4.63;;
78783;SDS011;68127;51.050;14.084;2023-05-14T02:03:16;9.07;;;5.30;;
78783;SDS011;68127;51.050;14.084;2023-05-14T02:05:41;8.10;;;5.00;;
78783;SDS011;68127;51.050;14.084;2023-05-14T02:08:06;9.02;;;5.38;;
78783;SDS011;68127;51.050;14.084;2023-05-14T02:10:31;8.52;;;5.72;;
78783;SDS011;68127;51.050;14.084;2023-05-14T02:12:57;7.95;;;4.97;;
78783;SDS011;68127;51.050;14.084;2023-05-14T02:15:22;7.28;;;5.03;;
78783;SDS011;68127;51.050;14.084;2023-05-14T02:17:47;8.38;;;5.03;;
78783;SDS011;68127;51.050;14.084;2023-05-14T02:20:13;7.47;;;4.80;;
78783;SDS011;68127;51.050;14.084;2023-05-14T02:22:38;7.82;;;5.30;;
78783;SDS011;68127;51.050;14.084;2023-05-14T02:25:06;8.38;;;5.10;;
78783;SDS011;68127;51.050;14.084;2023-05-14T02:27:32;8.40;;;5.63;;
78783;SDS011;68127;51.050;14.084;2023-05-14T02:29:57;8.07;;;5.60;;
78783;SDS011;68127;51.050;14.084;2023-05-14T02:32:24;8.48;;;5.45;;
78783;SDS011;68127;51.050;14.084;2023-05-14T02:34:49;8.63;;;5.57;;
78783;SDS011;68127;51.050;14.084;2023-05-14T02:37:15;9.38;;;6.35;;
78783;SDS011;68127;51.050;14.084;2023-05-14T02:39:40;9.38;;;6.00;;
78783;SDS011;68127;51.050;14.084;2023-05-14T02:42:05;10.55;;;6.40;;
78783;SDS011;68127;51.050;14.084;2023-05-14T02:44:31;9.10;;;6.68;;
78783;SDS011;68127;51.050;14.084;2023-05-14T02:46:56;9.05;;;6.30;;
78783;SDS011;68127;51.050;14.084;2023-05-14T02:49:21;8.57;;;6.53;;
78783;SDS011;68127;51.050;14.084;2023-05-14T02:51:46;11.35;;;6.80;;
78783;SDS011;68127;51.050;14.084;2023-05-14T02:54:12;10.52;;;6.28;;
78783;SDS011;68127;51.050;14.084;2023-05-14T02:56:37;8.98;;;6.30;;
78783;SDS011;68127;51.050;14.084;2023-05-14T02:59:02;10.93;;;6.60;;
78783;SDS011;68127;51.050;14.084;2023-05-14T03:01:28;10.38;;;6.53;;
78783;SDS011;68127;51.050;14.084;2023-05-14T03:03:53;11.57;;;6.53;;
78783;SDS011;68127;51.050;14.084;2023-05-14T03:06:18;11.70;;;6.50;;
78783;SDS011;68127;51.050;14.084;2023-05-14T03:08:43;9.10;;;6.80;;
78783;SDS011;68127;51.050;14.084;2023-05-14T03:11:09;11.52;;;6.95;;
78783;SDS011;68127;51.050;14.084;2023-05-14T03:13:35;10.27;;;6.32;;
78783;SDS011;68127;51.050;14.084;2023-05-14T03:16:00;10.07;;;6.88;;
78783;SDS011;68127;51.050;14.084;2023-05-14T03:18:25;11.23;;;6.53;;
78783;SDS011;68127;51.050;14.084;2023-05-14T03:20:52;11.40;;;6.65;;
78783;SDS011;68127;51.050;14.084;2023-05-14T03:23:17;10.05;;;6.65;;
78783;SDS011;68127;51.050;14.084;2023-05-14T03:25:42;9.82;;;7.22;;
78783;SDS011;68127;51.050;14.084;2023-05-14T03:28:08;9.88;;;7.22;;
78783;SDS011;68127;51.050;14.084;2023-05-14T03:30:33;10.73;;;7.22;;
78783;SDS011;68127;51.050;14.084;2023-05-14T03:32:59;10.35;;;7.38;;
78783;SDS011;68127;51.050;14.084;2023-05-14T03:35:24;10.93;;;7.18;;
78783;SDS011;68127;51.050;14.084;2023-05-14T03:37:49;9.10;;;6.90;;
78783;SDS011;68127;51.050;14.084;2023-05-14T03:40:16;12.90;;;7.15;;
78783;SDS011;68127;51.050;14.084;2023-05-14T03:42:42;10.13;;;7.50;;
78783;SDS011;68127;51.050;14.084;2023-05-14T03:45:07;11.35;;;7.13;;
78783;SDS011;68127;51.050;14.084;2023-05-14T03:47:33;10.43;;;7.20;;
78783;SDS011;68127;51.050;14.084;2023-05-14T03:49:58;8.43;;;5.97;;
78783;SDS011;68127;51.050;14.084;2023-05-14T03:52:23;9.55;;;6.55;;
78783;SDS011;68127;51.050;14.084;2023-05-14T03:54:49;13.90;;;7.30;;
78783;SDS011;68127;51.050;14.084;2023-05-14T03:57:14;10.55;;;7.13;;
78783;SDS011;68127;51.050;14.084;2023-05-14T03:59:39;10.95;;;6.93;;
78783;SDS011;68127;51.050;14.084;2023-05-14T04:02:04;9.68;;;6.20;;
78783;SDS011;68127;51.050;14.084;2023-05-14T04:04:30;10.68;;;7.43;;
78783;SDS011;68127;51.050;14.084;2023-05-14T04:06:55;12.07;;;6.90;;
78783;SDS011;68127;51.050;14.084;2023-05-14T04:09:20;11.85;;;7.00;;
78783;SDS011;68127;51.050;14.084;2023-05-14T04:11:45;12.15;;;7.68;;
78783;SDS011;68127;51.050;14.084;2023-05-14T04:14:11;10.82;;;7.45;;
78783;SDS011;68127;51.050;14.084;2023-05-14T04:16:36;8.95;;;7.00;;
78783;SDS011;68127;51.050;14.084;2023-05-14T04:19:01;9.27;;;6.35;;
78783;SDS011;68127;51.050;14.084;2023-05-14T04:21:28;10.50;;;6.38;;
78783;SDS011;68127;51.050;14.084;2023-05-14T04:23:53;8.57;;;6.40;;
78783;SDS011;68127;51.050;14.084;2023-05-14T04:26:19;9.95;;;6.25;;
78783;SDS011;68127;51.050;14.084;2023-05-14T04:28:45;11.52;;;6.38;;
78783;SDS011;68127;51.050;14.084;2023-05-14T04:31:10;8.82;;;6.22;;
78783;SDS011;68127;51.050;14.084;2023-05-14T04:33:36;9.07;;;6.40;;
78783;SDS011;68127;51.050;14.084;2023-05-14T04:36:01;9.35;;;6.43;;
78783;SDS011;68127;51.050;14.084;2023-05-14T04:38:26;9.77;;;6.70;;
78783;SDS011;68127;51.050;14.084;2023-05-14T04:40:52;11.00;;;6.30;;
78783;SDS011;68127;51.050;14.084;2023-05-14T04:43:17;12.15;;;6.10;;
78783;SDS011;68127;51.050;14.084;2023-05-14T04:45:42;9.90;;;6.68;;
78783;SDS011;68127;51.050;14.084;2023-05-14T04:48:07;9.57;;;6.40;;
78783;SDS011;68127;51.050;14.084;2023-05-14T04:50:33;9.23;;;5.68;;
78783;SDS011;68127;51.050;14.084;2023-05-14T04:52:58;11.07;;;6.10;;
78783;SDS011;68127;51.050;14.084;2023-05-14T04:55:24;8.50;;;5.95;;
78783;SDS011;68127;51.050;14.084;2023-05-14T04:57:49;8.50;;;6.07;;
78783;SDS011;68127;51.050;14.084;2023-05-14T05:00:15;9.65;;;5.93;;
78783;SDS011;68127;51.050;14.084;2023-05-14T05:02:41;9.35;;;6.00;;
78783;SDS011;68127;51.050;14.084;2023-05-14T05:05:06;8.70;;;6.35;;
78783;SDS011;68127;51.050;14.084;2023-05-14T05:07:32;10.02;;;6.13;;
78783;SDS011;68127;51.050;14.084;2023-05-14T05:09:57;9.60;;;5.90;;
78783;SDS011;68127;51.050;14.084;2023-05-14T05:12:24;8.93;;;6.47;;
78783;SDS011;68127;51.050;14.084;2023-05-14T05:14:49;8.93;;;6.43;;
78783;SDS011;68127;51.050;14.084;2023-05-14T05:17:15;9.13;;;6.35;;
78783;SDS011;68127;51.050;14.084;2023-05-14T05:19:40;8.75;;;6.82;;
78783;SDS011;68127;51.050;14.084;2023-05-14T05:22:05;9.48;;;7.55;;
78783;SDS011;68127;51.050;14.084;2023-05-14T05:24:31;9.32;;;6.40;;
78783;SDS011;68127;51.050;14.084;2023-05-14T05:26:56;8.82;;;6.47;;
78783;SDS011;68127;51.050;14.084;2023-05-14T05:29:21;9.60;;;6.90;;
78783;SDS011;68127;51.050;14.084;2023-05-14T05:31:47;11.35;;;6.65;;
78783;SDS011;68127;51.050;14.084;2023-05-14T05:34:12;8.57;;;6.43;;
78783;SDS011;68127;51.050;14.084;2023-05-14T05:36:37;9.00;;;6.38;;
78783;SDS011;68127;51.050;14.084;2023-05-14T05:39:03;10.88;;;6.97;;
78783;SDS011;68127;51.050;14.084;2023-05-14T05:41:28;9.55;;;6.40;;
78783;SDS011;68127;51.050;14.084;2023-05-14T05:43:54;10.07;;;6.65;;
78783;SDS011;68127;51.050;14.084;2023-05-14T05:46:19;8.88;;;6.55;;
78783;SDS011;68127;51.050;14.084;2023-05-14T05:48:45;9.48;;;6.57;;
78783;SDS011;68127;51.050;14.084;2023-05-14T05:51:10;9.95;;;7.18;;
78783;SDS011;68127;51.050;14.084;2023-05-14T05:53:35;8.98;;;6.80;;
78783;SDS011;68127;51.050;14.084;2023-05-14T05:56:01;9.52;;;6.22;;
78783;SDS011;68127;51.050;14.084;2023-05-14T05:58:26;9.40;;;6.78;;
78783;SDS011;68127;51.050;14.084;2023-05-14T06:00:51;8.52;;;6.35;;
78783;SDS011;68127;51.050;14.084;2023-05-14T06:03:17;9.80;;;7.28;;
78783;SDS011;68127;51.050;14.084;2023-05-14T06:05:42;8.45;;;6.22;;
78783;SDS011;68127;51.050;14.084;2023-05-14T06:08:07;9.18;;;6.75;;
78783;SDS011;68127;51.050;14.084;2023-05-14T06:10:33;10.63;;;6.40;;
78783;SDS011;68127;51.050;14.084;2023-05-14T06:13:00;10.75;;;6.57;;
78783;SDS011;68127;51.050;14.084;2023-05-14T06:15:25;9.48;;;6.78;;
78783;SDS011;68127;51.050;14.084;2023-05-14T06:17:50;8.82;;;6.10;;
78783;SDS011;68127;51.050;14.084;2023-05-14T06:20:15;9.48;;;6.18;;
78783;SDS011;68127;51.050;14.084;2023-05-14T06:22:41;9.68;;;6.38;;
78783;SDS011;68127;51.050;14.084;2023-05-14T06:25:06;9.85;;;6.07;;
78783;SDS011;68127;51.050;14.084;2023-05-14T06:27:32;8.48;;;6.40;;
78783;SDS011;68127;51.050;14.084;2023-05-14T06:29:57;7.93;;;5.53;;
78783;SDS011;68127;51.050;14.084;2023-05-14T06:32:22;10.23;;;6.18;;
78783;SDS011;68127;51.050;14.084;2023-05-14T06:34:47;9.52;;;5.60;;
78783;SDS011;68127;51.050;14.084;2023-05-14T06:37:13;8.85;;;5.78;;
78783;SDS011;68127;51.050;14.084;2023-05-14T06:39:38;9.07;;;5.30;;
78783;SDS011;68127;51.050;14.084;2023-05-14T06:42:04;10.48;;;6.30;;
78783;SDS011;68127;51.050;14.084;2023-05-14T06:44:29;9.63;;;5.93;;
78783;SDS011;68127;51.050;14.084;2023-05-14T06:46:55;8.18;;;5.45;;
78783;SDS011;68127;51.050;14.084;2023-05-14T06:49:21;9.10;;;5.50;;
78783;SDS011;68127;51.050;14.084;2023-05-14T06:51:46;8.40;;;6.03;;
78783;SDS011;68127;51.050;14.084;2023-05-14T06:54:11;9.57;;;6.10;;
78783;SDS011;68127;51.050;14.084;2023-05-14T06:56:37;7.18;;;5.30;;
78783;SDS011;68127;51.050;14.084;2023-05-14T06:59:02;9.82;;;5.40;;
78783;SDS011;68127;51.050;14.084;2023-05-14T07:01:27;8.43;;;5.95;;
78783;SDS011;68127;51.050;14.084;2023-05-14T07:03:52;7.78;;;5.40;;
78783;SDS011;68127;51.050;14.084;2023-05-14T07:06:18;8.43;;;5.88;;
78783;SDS011;68127;51.050;14.084;2023-05-14T07:08:43;8.52;;;5.93;;
78783;SDS011;68127;51.050;14.084;2023-05-14T07:11:11;11.02;;;5.68;;
78783;SDS011;68127;51.050;14.084;2023-05-14T07:13:37;10.48;;;6.20;;
78783;SDS011;68127;51.050;14.084;2023-05-14T07:16:02;9.70;;;6.00;;
78783;SDS011;68127;51.050;14.084;2023-05-14T07:18:28;8.48;;;5.72;;
78783;SDS011;68127;51.050;14.084;2023-05-14T07:20:54;8.77;;;5.85;;
78783;SDS011;68127;51.050;14.084;2023-05-14T07:23:19;8.15;;;5.47;;
78783;SDS011;68127;51.050;14.084;2023-05-14T07:25:44;8.77;;;5.65;;
78783;SDS011;68127;51.050;14.084;2023-05-14T07:28:10;8.95;;;5.45;;
78783;SDS011;68127;51.050;14.084;2023-05-14T07:30:35;8.68;;;5.70;;
78783;SDS011;68127;51.050;14.084;2023-05-14T07:33:01;7.60;;;5.65;;
78783;SDS011;68127;51.050;14.084;2023-05-14T07:35:26;11.25;;;5.65;;
78783;SDS011;68127;51.050;14.084;2023-05-14T07:37:51;7.10;;;5.30;;
78783;SDS011;68127;51.050;14.084;2023-05-14T07:40:16;9.82;;;5.97;;
78783;SDS011;68127;51.050;14.084;2023-05-14T07:42:42;8.60;;;6.07;;
78783;SDS011;68127;51.050;14.084;2023-05-14T07:45:07;8.52;;;5.10;;
78783;SDS011;68127;51.050;14.084;2023-05-14T07:47:33;7.43;;;5.40;;
78783;SDS011;68127;51.050;14.084;2023-05-14T07:49:59;7.47;;;5.40;;
78783;SDS011;68127;51.050;14.084;2023-05-14T07:52:24;6.90;;;5.15;;
78783;SDS011;68127;51.050;14.084;2023-05-14T07:54:49;8.88;;;5.68;;
78783;SDS011;68127;51.050;14.084;2023-05-14T07:57:15;8.98;;;5.10;;
78783;SDS011;68127;51.050;14.084;2023-05-14T07:59:41;6.82;;;4.95;;
78783;SDS011;68127;51.050;14.084;2023-05-14T08:02:06;8.20;;;5.10;;
78783;SDS011;68127;51.050;14.084;2023-05-14T08:04:33;7.68;;;5.95;;
78783;SDS011;68127;51.050;14.084;2023-05-14T08:06:59;9.05;;;5.47;;
78783;SDS011;68127;51.050;14.084;2023-05-14T08:09:25;7.97;;;5.68;;
78783;SDS011;68127;51.050;14.084;2023-05-14T08:11:50;10.38;;;6.03;;
78783;SDS011;68127;51.050;14.084;2023-05-14T08:14:15;9.65;;;5.78;;
78783;SDS011;68127;51.050;14.084;2023-05-14T08:16:41;9.57;;;5.53;;
78783;SDS011;68127;51.050;14.084;2023-05-14T08:19:06;7.35;;;5.32;;
78783;SDS011;68127;51.050;14.084;2023-05-14T08:21:31;7.93;;;5.43;;
78783;SDS011;68127;51.050;14.084;2023-05-14T08:23:57;9.07;;;5.28;;
78783;SDS011;68127;51.050;14.084;2023-05-14T08:26:22;8.45;;;5.65;;
78783;SDS011;68127;51.050;14.084;2023-05-14T08:28:47;10.43;;;5.53;;
78783;SDS011;68127;51.050;14.084;2023-05-14T08:31:12;9.02;;;5.55;;
78783;SDS011;68127;51.050;14.084;2023-05-14T08:33:38;9.07;;;6.00;;
78783;SDS011;68127;51.050;14.084;2023-05-14T08:36:04;7.93;;;5.70;;
78783;SDS011;68127;51.050;14.084;2023-05-14T08:38:29;9.07;;;6.05;;
78783;SDS011;68127;51.050;14.084;2023-05-14T08:40:55;8.55;;;5.70;;
78783;SDS011;68127;51.050;14.084;2023-05-14T08:43:25;7.18;;;5.63;;
78783;SDS011;68127;51.050;14.084;2023-05-14T08:45:55;8.00;;;5.55;;
78783;SDS011;68127;51.050;14.084;2023-05-14T08:48:22;10.82;;;6.60;;
78783;SDS011;68127;51.050;14.084;2023-05-14T08:50:49;9.07;;;5.75;;
78783;SDS011;68127;51.050;14.084;2023-05-14T08:53:14;7.30;;;5.25;;
78783;SDS011;68127;51.050;14.084;2023-05-14T08:55:39;9.10;;;5.03;;
78783;SDS011;68127;51.050;14.084;2023-05-14T08:58:05;7.85;;;5.13;;
78783;SDS011;68127;51.050;14.084;2023-05-14T09:00:30;7.13;;;5.43;;
78783;SDS011;68127;51.050;14.084;2023-05-14T09:02:56;8.32;;;5.30;;
78783;SDS011;68127;51.050;14.084;2023-05-14T09:05:21;7.30;;;5.30;;
78783;SDS011;68127;51.050;14.084;2023-05-14T09:07:47;6.88;;;4.78;;
78783;SDS011;68127;51.050;14.084;2023-05-14T09:10:13;7.65;;;4.80;;
78783;SDS011;68127;51.050;14.084;2023-05-14T09:12:39;7.43;;;4.68;;
78783;SDS011;68127;51.050;14.084;2023-05-14T09:15:05;6.57;;;4.60;;
78783;SDS011;68127;51.050;14.084;2023-05-14T09:17:31;7.32;;;5.10;;
78783;SDS011;68127;51.050;14.084;2023-05-14T09:19:57;7.32;;;5.05;;
78783;SDS011;68127;51.050;14.084;2023-05-14T09:22:22;8.82;;;5.05;;
78783;SDS011;68127;51.050;14.084;2023-05-14T09:25:00;6.78;;;5.10;;
78783;SDS011;68127;51.050;14.084;2023-05-14T09:27:28;7.47;;;4.70;;
78783;SDS011;68127;51.050;14.084;2023-05-14T09:29:54;9.35;;;6.28;;
78783;SDS011;68127;51.050;14.084;2023-05-14T09:32:20;8.20;;;5.40;;
78783;SDS011;68127;51.050;14.084;2023-05-14T09:34:45;8.35;;;5.30;;
78783;SDS011;68127;51.050;14.084;2023-05-14T09:37:10;7.07;;;4.50;;
78783;SDS011;68127;51.050;14.084;2023-05-14T09:39:36;6.07;;;4.32;;
78783;SDS011;68127;51.050;14.084;2023-05-14T09:42:02;6.85;;;4.93;;
78783;SDS011;68127;51.050;14.084;2023-05-14T09:44:27;6.63;;;4.72;;
78783;SDS011;68127;51.050;14.084;2023-05-14T09:46:53;8.68;;;5.30;;
78783;SDS011;68127;51.050;14.084;2023-05-14T09:49:18;10.07;;;4.93;;
78783;SDS011;68127;51.050;14.084;2023-05-14T09:51:44;6.75;;;4.63;;
78783;SDS011;68127;51.050;14.084;2023-05-14T09:54:09;7.60;;;4.72;;
78783;SDS011;68127;51.050;14.084;2023-05-14T09:56:35;7.90;;;4.63;;
78783;SDS011;68127;51.050;14.084;2023-05-14T09:59:01;5.93;;;4.40;;
78783;SDS011;68127;51.050;14.084;2023-05-14T10:01:27;7.88;;;4.70;;
78783;SDS011;68127;51.050;14.084;2023-05-14T10:03:53;7.60;;;5.07;;
78783;SDS011;68127;51.050;14.084;2023-05-14T10:06:21;8.07;;;5.45;;
78783;SDS011;68127;51.050;14.084;2023-05-14T10:08:48;6.82;;;4.40;;
78783;SDS011;68127;51.050;14.084;2023-05-14T10:11:21;5.50;;;4.10;;
78783;SDS011;68127;51.050;14.084;2023-05-14T10:13:56;6.50;;;4.47;;
78783;SDS011;68127;51.050;14.084;2023-05-14T10:16:30;5.65;;;4.15;;
78783;SDS011;68127;51.050;14.084;2023-05-14T10:19:00;6.07;;;4.28;;
78783;SDS011;68127;51.050;14.084;2023-05-14T10:21:30;5.88;;;3.63;;
78783;SDS011;68127;51.050;14.084;2023-05-14T10:23:59;5.95;;;3.85;;
78783;SDS011;68127;51.050;14.084;2023-05-14T10:26:24;5.13;;;3.45;;
78783;SDS011;68127;51.050;14.084;2023-05-14T10:28:49;5.68;;;3.30;;
78783;SDS011;68127;51.050;14.084;2023-05-14T10:31:15;4.93;;;3.60;;
78783;SDS011;68127;51.050;14.084;2023-05-14T10:33:47;5.10;;;3.92;;
78783;SDS011;68127;51.050;14.084;2023-05-14T10:36:14;5.28;;;3.47;;
78783;SDS011;68127;51.050;14.084;2023-05-14T10:38:41;4.97;;;3.33;;
78783;SDS011;68127;51.050;14.084;2023-05-14T10:41:10;4.47;;;3.38;;
78783;SDS011;68127;51.050;14.084;2023-05-14T10:43:39;4.87;;;3.47;;
78783;SDS011;68127;51.050;14.084;2023-05-14T10:46:05;6.00;;;3.63;;
78783;SDS011;68127;51.050;14.084;2023-05-14T10:48:32;6.28;;;3.88;;
78783;SDS011;68127;51.050;14.084;2023-05-14T10:50:58;5.95;;;4.00;;
78783;SDS011;68127;51.050;14.084;2023-05-14T10:53:33;6.57;;;3.90;;
78783;SDS011;68127;51.050;14.084;2023-05-14T10:56:03;6.57;;;3.95;;
78783;SDS011;68127;51.050;14.084;2023-05-14T10:58:30;6.72;;;3.65;;
78783;SDS011;68127;51.050;14.084;2023-05-14T11:00:58;5.90;;;4.45;;
78783;SDS011;68127;51.050;14.084;2023-05-14T11:03:23;5.80;;;4.00;;
78783;SDS011;68127;51.050;14.084;2023-05-14T11:05:53;7.07;;;4.15;;
78783;SDS011;68127;51.050;14.084;2023-05-14T11:08:19;7.57;;;3.83;;
78783;SDS011;68127;51.050;14.084;2023-05-14T11:10:45;6.55;;;3.97;;
78783;SDS011;68127;51.050;14.084;2023-05-14T11:13:11;5.50;;;3.80;;
78783;SDS011;68127;51.050;14.084;2023-05-14T11:15:36;5.22;;;3.70;;
78783;SDS011;68127;51.050;14.084;2023-05-14T11:18:02;6.47;;;4.20;;
78783;SDS011;68127;51.050;14.084;2023-05-14T11:20:27;5.97;;;3.75;;
78783;SDS011;68127;51.050;14.084;2023-05-14T11:22:53;5.80;;;3.50;;
78783;SDS011;68127;51.050;14.084;2023-05-14T11:25:19;9.88;;;3.90;;
78783;SDS011;68127;51.050;14.084;2023-05-14T11:27:45;7.20;;;4.05;;
78783;SDS011;68127;51.050;14.084;2023-05-14T11:30:15;6.35;;;4.13;;
78783;SDS011;68127;51.050;14.084;2023-05-14T11:32:44;5.57;;;3.90;;
78783;SDS011;68127;51.050;14.084;2023-05-14T11:35:10;5.10;;;3.70;;
78783;SDS011;68127;51.050;14.084;2023-05-14T11:37:36;6.22;;;4.03;;
78783;SDS011;68127;51.050;14.084;2023-05-14T11:40:01;8.75;;;3.53;;
78783;SDS011;68127;51.050;14.084;2023-05-14T11:42:26;4.75;;;3.30;;
78783;SDS011;68127;51.050;14.084;2023-05-14T11:44:52;5.10;;;3.33;;
78783;SDS011;68127;51.050;14.084;2023-05-14T11:47:20;5.32;;;3.45;;
78783;SDS011;68127;51.050;14.084;2023-05-14T11:49:46;4.88;;;3.63;;
78783;SDS011;68127;51.050;14.084;2023-05-14T11:52:12;6.53;;;3.92;;
78783;SDS011;68127;51.050;14.084;2023-05-14T11:54:39;5.78;;;3.60;;
78783;SDS011;68127;51.050;14.084;2023-05-14T11:57:26;6.03;;;3.85;;
78783;SDS011;68127;51.050;14.084;2023-05-14T11:59:56;5.50;;;3.67;;
78783;SDS011;68127;51.050;14.084;2023-05-14T12:02:21;6.25;;;3.50;;
78783;SDS011;68127;51.050;14.084;2023-05-14T12:04:50;4.65;;;3.20;;
78783;SDS011;68127;51.050;14.084;2023-05-14T12:07:16;5.93;;;3.35;;
78783;SDS011;68127;51.050;14.084;2023-05-14T12:09:42;4.53;;;3.10;;
78783;SDS011;68127;51.050;14.084;2023-05-14T12:12:13;7.55;;;3.50;;
78783;SDS011;68127;51.050;14.084;2023-05-14T12:14:39;4.78;;;3.20;;
78783;SDS011;68127;51.050;14.084;2023-05-14T12:17:13;5.57;;;3.28;;
78783;SDS011;68127;51.050;14.084;2023-05-14T12:19:40;9.35;;;3.50;;
78783;SDS011;68127;51.050;14.084;2023-05-14T12:22:06;6.03;;;3.60;;
78783;SDS011;68127;51.050;14.084;2023-05-14T12:24:32;4.78;;;3.22;;
78783;SDS011;68127;51.050;14.084;2023-05-14T12:26:59;7.53;;;3.60;;
78783;SDS011;68127;51.050;14.084;2023-05-14T12:29:25;6.05;;;3.40;;
78783;SDS011;68127;51.050;14.084;2023-05-14T12:31:50;5.07;;;3.45;;
78783;SDS011;68127;51.050;14.084;2023-05-14T12:34:15;4.85;;;3.30;;
78783;SDS011;68127;51.050;14.084;2023-05-14T12:36:41;4.63;;;3.65;;
78783;SDS011;68127;51.050;14.084;2023-05-14T12:39:07;6.03;;;3.60;;
78783;SDS011;68127;51.050;14.084;2023-05-14T12:41:33;6.65;;;3.88;;
78783;SDS011;68127;51.050;14.084;2023-05-14T12:43:59;6.35;;;3.80;;
78783;SDS011;68127;51.050;14.084;2023-05-14T12:46:25;5.72;;;3.33;;
78783;SDS011;68127;51.050;14.084;2023-05-14T12:48:51;5.55;;;3.40;;
78783;SDS011;68127;51.050;14.084;2023-05-14T12:51:17;4.78;;;3.42;;
78783;SDS011;68127;51.050;14.084;2023-05-14T12:53:42;5.13;;;3.17;;
78783;SDS011;68127;51.050;14.084;2023-05-14T12:56:07;4.95;;;3.38;;
78783;SDS011;68127;51.050;14.084;2023-05-14T12:58:33;4.97;;;3.45;;
78783;SDS011;68127;51.050;14.084;2023-05-14T13:00:58;4.78;;;3.40;;
78783;SDS011;68127;51.050;14.084;2023-05-14T13:03:23;6.60;;;3.50;;
78783;SDS011;68127;51.050;14.084;2023-05-14T13:05:50;8.75;;;3.90;;
78783;SDS011;68127;51.050;14.084;2023-05-14T13:08:16;6.43;;;3.38;;
78783;SDS011;68127;51.050;14.084;2023-05-14T13:10:42;5.97;;;3.70;;
78783;SDS011;68127;51.050;14.084;2023-05-14T13:13:08;5.05;;;3.53;;
78783;SDS011;68127;51.050;14.084;2023-05-14T13:15:34;6.10;;;3.30;;
78783;SDS011;68127;51.050;14.084;2023-05-14T13:17:59;6.05;;;3.35;;
78783;SDS011;68127;51.050;14.084;2023-05-14T13:20:25;5.43;;;3.40;;
78783;SDS011;68127;51.050;14.084;2023-05-14T13:22:51;10.15;;;3.47;;
78783;SDS011;68127;51.050;14.084;2023-05-14T13:25:16;4.82;;;3.40;;
78783;SDS011;68127;51.050;14.084;2023-05-14T13:27:42;6.90;;;3.92;;
78783;SDS011;68127;51.050;14.084;2023-05-14T13:30:09;5.22;;;3.70;;
78783;SDS011;68127;51.050;14.084;2023-05-14T13:32:35;4.72;;;3.25;;
78783;SDS011;68127;51.050;14.084;2023-05-14T13:35:01;4.95;;;3.35;;
78783;SDS011;68127;51.050;14.084;2023-05-14T13:37:26;6.80;;;3.63;;
78783;SDS011;68127;51.050;14.084;2023-05-14T13:39:52;6.00;;;3.28;;
78783;SDS011;68127;51.050;14.084;2023-05-14T13:42:17;6.00;;;3.70;;
78783;SDS011;68127;51.050;14.084;2023-05-14T13:44:42;5.28;;;3.42;;
78783;SDS011;68127;51.050;14.084;2023-05-14T13:47:07;5.57;;;3.88;;
78783;SDS011;68127;51.050;14.084;2023-05-14T13:49:33;5.68;;;3.80;;
78783;SDS011;68127;51.050;14.084;2023-05-14T13:51:58;6.07;;;3.60;;
78783;SDS011;68127;51.050;14.084;2023-05-14T13:54:23;6.43;;;3.72;;
78783;SDS011;68127;51.050;14.084;2023-05-14T13:56:49;5.30;;;3.60;;
78783;SDS011;68127;51.050;14.084;2023-05-14T13:59:14;8.15;;;4.18;;
78783;SDS011;68127;51.050;14.084;2023-05-14T14:01:39;8.45;;;4.70;;
78783;SDS011;68127;51.050;14.084;2023-05-14T14:04:07;6.90;;;4.07;;
78783;SDS011;68127;51.050;14.084;2023-05-14T14:06:32;6.40;;;4.30;;
78783;SDS011;68127;51.050;14.084;2023-05-14T14:08:57;5.93;;;4.30;;
78783;SDS011;68127;51.050;14.084;2023-05-14T14:11:22;6.10;;;4.25;;
78783;SDS011;68127;51.050;14.084;2023-05-14T14:13:48;6.07;;;4.05;;
78783;SDS011;68127;51.050;14.084;2023-05-14T14:16:13;5.70;;;3.80;;
78783;SDS011;68127;51.050;14.084;2023-05-14T14:18:39;5.22;;;3.92;;
78783;SDS011;68127;51.050;14.084;2023-05-14T14:21:06;6.75;;;4.00;;
78783;SDS011;68127;51.050;14.084;2023-05-14T14:23:32;5.53;;;4.30;;
78783;SDS011;68127;51.050;14.084;2023-05-14T14:25:57;5.93;;;4.05;;
78783;SDS011;68127;51.050;14.084;2023-05-14T14:28:22;5.43;;;4.18;;